GLO1847 SBVT-SBGL
Flight info
| Callsign | GLO1847 |
|---|---|
| Flight time | 0h 48m |
| Altitude | 32000 |
| Route | USVAG UN401 MOLSU |
| Aircraft | B738/M-SDE2E3FGHIRWXY/LB1 |
Departure
| Time | 2026-04-18 04:29 |
|---|---|
| Airport | Eurico de Aguiar Salles International Airport (SBVT) |
Arrival
| Time | 2026-04-18 05:18 |
|---|---|
| Airport | Rio Galeão – Tom Jobim International Airport (SBGL) |
| Time | Latitude | Longitude | Altitude | Speed | Heading |
|---|---|---|---|---|---|
| 2026-04-18 04:22 | -20.26534 | -40.28167 | 17 ft | 1 kts | 262° |
| 2026-04-18 04:23 | -20.26531 | -40.28143 | 18 ft | 4 kts | 262° |
| 2026-04-18 04:23 | -20.26528 | -40.28115 | 17 ft | 4 kts | 262° |
| 2026-04-18 04:23 | -20.26524 | -40.28086 | 17 ft | 4 kts | 262° |
| 2026-04-18 04:24 | -20.26520 | -40.28060 | 17 ft | 4 kts | 245° |
| 2026-04-18 04:24 | -20.26505 | -40.28041 | 17 ft | 4 kts | 196° |
| 2026-04-18 04:24 | -20.26489 | -40.28039 | 17 ft | 1 kts | 172° |
| 2026-04-18 04:26 | -20.26528 | -40.28034 | 19 ft | 11 kts | 172° |
| 2026-04-18 04:26 | -20.26603 | -40.28009 | 17 ft | 12 kts | 131° |
| 2026-04-18 04:27 | -20.26610 | -40.27963 | 17 ft | 0 kts | 83° |
| 2026-04-18 04:28 | -20.26608 | -40.27951 | 17 ft | 5 kts | 83° |
| 2026-04-18 04:28 | -20.26597 | -40.27890 | 16 ft | 10 kts | 73° |
| 2026-04-18 04:28 | -20.26561 | -40.27853 | 16 ft | 2 kts | 357° |
| 2026-04-18 04:28 | -20.26560 | -40.27853 | 16 ft | 0 kts | 353° |
| 2026-04-18 04:29 | -20.26361 | -40.27882 | 17 ft | 67 kts | 352° |
| 2026-04-18 04:29 | -20.25638 | -40.27988 | 20 ft | 137 kts | 352° |
| 2026-04-18 04:29 | -20.24535 | -40.28136 | 295 ft | 169 kts | 352° |
| 2026-04-18 04:29 | -20.23361 | -40.28271 | 1112 ft | 173 kts | 4° |
| 2026-04-18 04:30 | -20.22320 | -40.27722 | 1858 ft | 174 kts | 44° |
| 2026-04-18 04:30 | -20.21362 | -40.26773 | 2233 ft | 204 kts | 40° |
| 2026-04-18 04:30 | -20.20247 | -40.25756 | 2671 ft | 216 kts | 39° |
| 2026-04-18 04:30 | -20.19074 | -40.24716 | 3288 ft | 220 kts | 38° |
| 2026-04-18 04:31 | -20.17887 | -40.23681 | 3965 ft | 223 kts | 38° |
| 2026-04-18 04:31 | -20.16652 | -40.22633 | 4494 ft | 233 kts | 32° |
| 2026-04-18 04:31 | -20.15061 | -40.22135 | 4757 ft | 252 kts | 355° |
| 2026-04-18 04:31 | -20.13376 | -40.22786 | 5161 ft | 267 kts | 321° |
| 2026-04-18 04:32 | -20.12185 | -40.24296 | 5911 ft | 270 kts | 296° |
| 2026-04-18 04:32 | -20.11486 | -40.26163 | 6644 ft | 275 kts | 287° |
| 2026-04-18 04:32 | -20.10918 | -40.28117 | 7435 ft | 277 kts | 286° |
| 2026-04-18 04:32 | -20.10334 | -40.30082 | 8238 ft | 280 kts | 287° |
| 2026-04-18 04:33 | -20.09711 | -40.32067 | 9031 ft | 285 kts | 288° |
| 2026-04-18 04:33 | -20.09062 | -40.34071 | 9821 ft | 288 kts | 289° |
| 2026-04-18 04:33 | -20.08409 | -40.36098 | 10546 ft | 291 kts | 285° |
| 2026-04-18 04:33 | -20.08284 | -40.38235 | 11247 ft | 293 kts | 258° |
| 2026-04-18 04:34 | -20.09075 | -40.40219 | 12008 ft | 295 kts | 235° |
| 2026-04-18 04:34 | -20.10548 | -40.41735 | 12722 ft | 299 kts | 216° |
| 2026-04-18 04:34 | -20.12296 | -40.42958 | 13421 ft | 303 kts | 214° |
| 2026-04-18 04:34 | -20.14095 | -40.44157 | 14053 ft | 306 kts | 214° |
| 2026-04-18 04:35 | -20.15888 | -40.45348 | 14652 ft | 309 kts | 214° |
| 2026-04-18 04:35 | -20.17740 | -40.46588 | 15274 ft | 312 kts | 214° |
| 2026-04-18 04:35 | -20.19561 | -40.47819 | 15885 ft | 316 kts | 214° |
| 2026-04-18 04:35 | -20.21421 | -40.49084 | 16499 ft | 319 kts | 214° |
| 2026-04-18 04:36 | -20.23298 | -40.50365 | 17123 ft | 322 kts | 214° |
| 2026-04-18 04:36 | -20.25195 | -40.51661 | 17728 ft | 326 kts | 214° |
| 2026-04-18 04:36 | -20.27110 | -40.52970 | 18313 ft | 329 kts | 214° |
| 2026-04-18 04:36 | -20.29044 | -40.54295 | 18832 ft | 332 kts | 214° |
| 2026-04-18 04:37 | -20.30989 | -40.55627 | 19382 ft | 334 kts | 215° |
| 2026-04-18 04:37 | -20.32949 | -40.56970 | 19926 ft | 336 kts | 215° |
| 2026-04-18 04:37 | -20.34924 | -40.58325 | 20468 ft | 339 kts | 215° |
| 2026-04-18 04:37 | -20.36909 | -40.59686 | 21018 ft | 341 kts | 215° |
| 2026-04-18 04:38 | -20.38913 | -40.61061 | 21539 ft | 344 kts | 215° |
| 2026-04-18 04:38 | -20.40931 | -40.62445 | 22052 ft | 346 kts | 215° |
| 2026-04-18 04:38 | -20.42963 | -40.63840 | 22582 ft | 348 kts | 215° |
| 2026-04-18 04:38 | -20.45002 | -40.65240 | 23127 ft | 350 kts | 215° |
| 2026-04-18 04:39 | -20.47056 | -40.66650 | 23613 ft | 352 kts | 215° |
| 2026-04-18 04:39 | -20.49122 | -40.68070 | 24039 ft | 354 kts | 216° |
| 2026-04-18 04:39 | -20.51197 | -40.69495 | 24480 ft | 355 kts | 216° |
| 2026-04-18 04:39 | -20.53275 | -40.70925 | 24950 ft | 356 kts | 216° |
| 2026-04-18 04:40 | -20.55364 | -40.72363 | 25416 ft | 358 kts | 217° |
| 2026-04-18 04:40 | -20.57462 | -40.73807 | 25883 ft | 359 kts | 217° |
| 2026-04-18 04:40 | -20.59565 | -40.75255 | 26318 ft | 361 kts | 217° |
| 2026-04-18 04:40 | -20.61675 | -40.76707 | 26767 ft | 362 kts | 217° |
| 2026-04-18 04:41 | -20.63798 | -40.78169 | 27192 ft | 363 kts | 218° |
| 2026-04-18 04:41 | -20.65925 | -40.79634 | 27627 ft | 364 kts | 218° |
| 2026-04-18 04:41 | -20.68058 | -40.81104 | 27995 ft | 366 kts | 218° |
| 2026-04-18 04:41 | -20.70108 | -40.82704 | 28328 ft | 362 kts | 230° |
| 2026-04-18 04:42 | -20.71786 | -40.84698 | 28740 ft | 361 kts | 233° |
| 2026-04-18 04:42 | -20.73444 | -40.86719 | 29172 ft | 362 kts | 233° |
| 2026-04-18 04:42 | -20.75108 | -40.88736 | 29580 ft | 363 kts | 233° |
| 2026-04-18 04:42 | -20.76787 | -40.90758 | 29952 ft | 364 kts | 233° |
| 2026-04-18 04:43 | -20.78456 | -40.92756 | 30298 ft | 365 kts | 233° |
| 2026-04-18 04:43 | -20.80153 | -40.94782 | 30645 ft | 366 kts | 233° |
| 2026-04-18 04:43 | -20.81852 | -40.96807 | 31018 ft | 366 kts | 233° |
| 2026-04-18 04:43 | -20.83548 | -40.98830 | 31342 ft | 366 kts | 233° |
| 2026-04-18 04:44 | -20.85251 | -41.00860 | 31653 ft | 367 kts | 233° |
| 2026-04-18 04:44 | -20.86957 | -41.02901 | 31894 ft | 370 kts | 233° |
| 2026-04-18 04:44 | -20.88686 | -41.04979 | 31885 ft | 377 kts | 233° |
| 2026-04-18 04:45 | -20.92225 | -41.09241 | 31904 ft | 390 kts | 233° |
| 2026-04-18 04:45 | -20.95248 | -41.12881 | 31909 ft | 398 kts | 233° |
| 2026-04-18 04:46 | -20.98980 | -41.17371 | 31895 ft | 409 kts | 233° |
| 2026-04-18 04:46 | -21.02803 | -41.21973 | 31889 ft | 418 kts | 233° |
| 2026-04-18 04:47 | -21.06699 | -41.26669 | 31872 ft | 425 kts | 233° |
| 2026-04-18 04:47 | -21.10640 | -41.31421 | 31930 ft | 430 kts | 233° |
| 2026-04-18 04:48 | -21.14620 | -41.36226 | 31894 ft | 431 kts | 233° |
| 2026-04-18 04:48 | -21.18594 | -41.41028 | 31889 ft | 430 kts | 233° |
| 2026-04-18 04:49 | -21.22562 | -41.45829 | 31893 ft | 430 kts | 233° |
| 2026-04-18 04:49 | -21.26526 | -41.50630 | 31894 ft | 430 kts | 233° |
| 2026-04-18 04:50 | -21.30486 | -41.55427 | 31891 ft | 429 kts | 233° |
| 2026-04-18 04:50 | -21.34452 | -41.60223 | 31887 ft | 429 kts | 233° |
| 2026-04-18 04:51 | -21.38407 | -41.65006 | 31893 ft | 429 kts | 233° |
| 2026-04-18 04:51 | -21.42366 | -41.69799 | 31892 ft | 429 kts | 233° |
| 2026-04-18 04:52 | -21.46291 | -41.74559 | 31905 ft | 428 kts | 233° |
| 2026-04-18 04:52 | -21.50240 | -41.79352 | 31891 ft | 428 kts | 233° |
| 2026-04-18 04:53 | -21.54192 | -41.84152 | 31894 ft | 428 kts | 233° |
| 2026-04-18 04:53 | -21.58141 | -41.88952 | 31898 ft | 429 kts | 233° |
| 2026-04-18 04:54 | -21.62087 | -41.93755 | 31896 ft | 428 kts | 233° |
| 2026-04-18 04:54 | -21.66032 | -41.98559 | 31905 ft | 429 kts | 233° |
| 2026-04-18 04:55 | -21.69974 | -42.03363 | 31896 ft | 429 kts | 233° |
| 2026-04-18 04:55 | -21.73917 | -42.08174 | 31894 ft | 428 kts | 233° |
| 2026-04-18 04:56 | -21.79814 | -42.15378 | 31896 ft | 427 kts | 233° |
| 2026-04-18 04:56 | -21.83788 | -42.20134 | 31881 ft | 430 kts | 227° |
| 2026-04-18 04:57 | -21.86242 | -42.22018 | 31922 ft | 438 kts | 215° |
| 2026-04-18 04:57 | -21.88923 | -42.23599 | 31805 ft | 442 kts | 214° |
| 2026-04-18 04:57 | -21.91647 | -42.25183 | 31417 ft | 446 kts | 214° |
| 2026-04-18 04:57 | -21.94367 | -42.26777 | 30916 ft | 443 kts | 214° |
| 2026-04-18 04:58 | -21.97049 | -42.28371 | 30451 ft | 437 kts | 215° |
| 2026-04-18 04:58 | -21.99657 | -42.29938 | 29967 ft | 433 kts | 215° |
| 2026-04-18 04:58 | -22.02273 | -42.31522 | 29438 ft | 431 kts | 215° |
| 2026-04-18 04:58 | -22.04918 | -42.33128 | 28903 ft | 444 kts | 215° |
| 2026-04-18 04:59 | -22.07598 | -42.34865 | 28367 ft | 450 kts | 222° |
| 2026-04-18 04:59 | -22.09755 | -42.37237 | 27844 ft | 440 kts | 237° |
| 2026-04-18 04:59 | -22.11290 | -42.40088 | 27477 ft | 443 kts | 250° |
| 2026-04-18 04:59 | -22.12229 | -42.43265 | 27100 ft | 447 kts | 257° |
| 2026-04-18 05:00 | -22.12993 | -42.46521 | 26682 ft | 446 kts | 258° |
| 2026-04-18 05:00 | -22.13724 | -42.49756 | 26291 ft | 443 kts | 258° |
| 2026-04-18 05:00 | -22.14459 | -42.52982 | 25917 ft | 445 kts | 257° |
| 2026-04-18 05:00 | -22.15216 | -42.56246 | 25521 ft | 452 kts | 257° |
| 2026-04-18 05:01 | -22.15995 | -42.59544 | 25114 ft | 453 kts | 257° |
| 2026-04-18 05:01 | -22.16780 | -42.62823 | 24704 ft | 450 kts | 257° |
| 2026-04-18 05:01 | -22.17567 | -42.66090 | 24296 ft | 448 kts | 257° |
| 2026-04-18 05:01 | -22.18349 | -42.69338 | 23902 ft | 446 kts | 257° |
| 2026-04-18 05:02 | -22.19127 | -42.72578 | 23496 ft | 446 kts | 257° |
| 2026-04-18 05:02 | -22.19902 | -42.75811 | 23042 ft | 444 kts | 257° |
| 2026-04-18 05:02 | -22.20671 | -42.79029 | 22628 ft | 442 kts | 257° |
| 2026-04-18 05:02 | -22.21439 | -42.82239 | 22232 ft | 441 kts | 256° |
| 2026-04-18 05:03 | -22.22203 | -42.85440 | 21840 ft | 439 kts | 256° |
| 2026-04-18 05:03 | -22.22953 | -42.88582 | 21474 ft | 437 kts | 256° |
| 2026-04-18 05:03 | -22.23710 | -42.91756 | 21126 ft | 436 kts | 256° |
| 2026-04-18 05:03 | -22.24462 | -42.94919 | 20763 ft | 434 kts | 256° |
| 2026-04-18 05:04 | -22.25213 | -42.98073 | 20422 ft | 433 kts | 256° |
| 2026-04-18 05:04 | -22.25961 | -43.01214 | 20067 ft | 432 kts | 256° |
| 2026-04-18 05:04 | -22.26709 | -43.04361 | 19627 ft | 434 kts | 256° |
| 2026-04-18 05:04 | -22.27455 | -43.07509 | 19156 ft | 430 kts | 256° |
| 2026-04-18 05:05 | -22.28191 | -43.10614 | 18674 ft | 424 kts | 255° |
| 2026-04-18 05:05 | -22.28918 | -43.13684 | 18214 ft | 422 kts | 255° |
| 2026-04-18 05:05 | -22.29644 | -43.16751 | 17704 ft | 421 kts | 255° |
| 2026-04-18 05:05 | -22.30366 | -43.19802 | 17219 ft | 418 kts | 255° |
| 2026-04-18 05:06 | -22.31084 | -43.22840 | 16752 ft | 416 kts | 255° |
| 2026-04-18 05:06 | -22.31795 | -43.25856 | 16298 ft | 414 kts | 255° |
| 2026-04-18 05:06 | -22.32503 | -43.28857 | 15850 ft | 412 kts | 255° |
| 2026-04-18 05:06 | -22.33207 | -43.31846 | 15399 ft | 410 kts | 255° |
| 2026-04-18 05:07 | -22.33897 | -43.34776 | 14954 ft | 408 kts | 255° |
| 2026-04-18 05:07 | -22.34604 | -43.37785 | 14501 ft | 401 kts | 255° |
| 2026-04-18 05:07 | -22.35275 | -43.40642 | 14061 ft | 383 kts | 255° |
| 2026-04-18 05:07 | -22.35915 | -43.43369 | 13643 ft | 367 kts | 255° |
| 2026-04-18 05:08 | -22.36633 | -43.45952 | 13195 ft | 351 kts | 244° |
| 2026-04-18 05:08 | -22.37986 | -43.48024 | 12764 ft | 338 kts | 225° |
| 2026-04-18 05:08 | -22.39823 | -43.49582 | 12029 ft | 335 kts | 209° |
| 2026-04-18 05:08 | -22.41943 | -43.50594 | 11379 ft | 332 kts | 201° |
| 2026-04-18 05:09 | -22.44128 | -43.51477 | 10701 ft | 329 kts | 201° |
| 2026-04-18 05:09 | -22.46242 | -43.52318 | 10029 ft | 328 kts | 201° |
| 2026-04-18 05:09 | -22.48377 | -43.53188 | 9741 ft | 312 kts | 201° |
| 2026-04-18 05:09 | -22.50323 | -43.53996 | 9514 ft | 298 kts | 201° |
| 2026-04-18 05:10 | -22.52235 | -43.54795 | 9065 ft | 292 kts | 202° |
| 2026-04-18 05:10 | -22.54121 | -43.55580 | 8571 ft | 288 kts | 200° |
| 2026-04-18 05:10 | -22.56075 | -43.55892 | 8152 ft | 285 kts | 175° |
| 2026-04-18 05:10 | -22.57968 | -43.55372 | 7795 ft | 277 kts | 159° |
| 2026-04-18 05:11 | -22.59675 | -43.54507 | 7424 ft | 267 kts | 156° |
| 2026-04-18 05:11 | -22.61315 | -43.53614 | 6985 ft | 261 kts | 156° |
| 2026-04-18 05:11 | -22.62924 | -43.52747 | 6542 ft | 255 kts | 155° |
| 2026-04-18 05:11 | -22.64327 | -43.51617 | 6083 ft | 253 kts | 132° |
| 2026-04-18 05:12 | -22.65345 | -43.50096 | 5620 ft | 247 kts | 128° |
| 2026-04-18 05:12 | -22.66344 | -43.48606 | 5116 ft | 243 kts | 128° |
| 2026-04-18 05:12 | -22.67336 | -43.47135 | 4558 ft | 243 kts | 127° |
| 2026-04-18 05:12 | -22.68311 | -43.45680 | 4200 ft | 233 kts | 127° |
| 2026-04-18 05:13 | -22.69246 | -43.44281 | 3873 ft | 226 kts | 127° |
| 2026-04-18 05:13 | -22.70157 | -43.42918 | 3587 ft | 219 kts | 126° |
| 2026-04-18 05:13 | -22.71037 | -43.41602 | 3303 ft | 213 kts | 126° |
| 2026-04-18 05:13 | -22.71895 | -43.40316 | 3034 ft | 207 kts | 126° |
| 2026-04-18 05:14 | -22.72728 | -43.39069 | 2774 ft | 202 kts | 126° |
| 2026-04-18 05:14 | -22.73541 | -43.37855 | 2512 ft | 196 kts | 126° |
| 2026-04-18 05:14 | -22.74326 | -43.36682 | 2282 ft | 186 kts | 125° |
| 2026-04-18 05:14 | -22.75066 | -43.35574 | 2050 ft | 181 kts | 125° |
| 2026-04-18 05:15 | -22.75787 | -43.34495 | 1817 ft | 170 kts | 125° |
| 2026-04-18 05:15 | -22.76465 | -43.33503 | 1632 ft | 162 kts | 127° |
| 2026-04-18 05:15 | -22.77144 | -43.32533 | 1341 ft | 160 kts | 125° |
| 2026-04-18 05:15 | -22.77788 | -43.31574 | 1097 ft | 155 kts | 124° |
| 2026-04-18 05:16 | -22.78407 | -43.30633 | 905 ft | 151 kts | 124° |
| 2026-04-18 05:16 | -22.79021 | -43.29721 | 747 ft | 148 kts | 126° |
| 2026-04-18 05:16 | -22.79622 | -43.28818 | 585 ft | 148 kts | 124° |
| 2026-04-18 05:16 | -22.80214 | -43.27913 | 415 ft | 146 kts | 124° |
| 2026-04-18 05:17 | -22.80810 | -43.27019 | 235 ft | 146 kts | 125° |
| 2026-04-18 05:17 | -22.81399 | -43.26134 | 48 ft | 144 kts | 125° |
| 2026-04-18 05:17 | -22.81922 | -43.25343 | 25 ft | 102 kts | 125° |
| 2026-04-18 05:17 | -22.82222 | -43.24891 | 26 ft | 54 kts | 126° |
| 2026-04-18 05:18 | -22.82336 | -43.24676 | 25 ft | 12 kts | 108° |
| 2026-04-18 05:18 | -22.82360 | -43.24591 | 25 ft | 12 kts | 101° |
| 2026-04-18 05:18 | -22.82368 | -43.24506 | 25 ft | 11 kts | 90° |
| 2026-04-18 05:18 | -22.82344 | -43.24430 | 25 ft | 11 kts | 39° |
| 2026-04-18 05:19 | -22.82279 | -43.24379 | 27 ft | 13 kts | 35° |
| 2026-04-18 05:19 | -22.82200 | -43.24317 | 28 ft | 15 kts | 36° |
| 2026-04-18 05:19 | -22.82106 | -43.24242 | 29 ft | 17 kts | 37° |
| 2026-04-18 05:19 | -22.82010 | -43.24167 | 27 ft | 17 kts | 36° |
| 2026-04-18 05:20 | -22.81918 | -43.24093 | 25 ft | 16 kts | 38° |
| 2026-04-18 05:20 | -22.81873 | -43.24053 | 27 ft | 8 kts | 44° |
| 2026-04-18 05:20 | -22.81849 | -43.24023 | 25 ft | 0 kts | 50° |